| Date | Time | Temp. (oF) | Dew Point (oF) | Rel. Hum. (%) | Press. (in.) | Wind Dir. (deg.) | Wind Speed (mph) | Hourly Rainfall (i n.) |
|
|---|---|---|---|---|---|---|---|---|---|
| 1 | 04/15 | 24:00 | 49 | 23 | 36 | 29.93 | 270 | 1 | 0.00 |
| 2 | 04/14 | 23:00 | 51 | 24 | 35 | 29.91 | 330 | 0 | 0.00 |
| 3 | 04/14 | 22:00 | 54 | 22 | 29 | 29.91 | 330 | 0 | 0.00 |
| 4 | 04/14 | 21:00 | 58 | 21 | 24 | 29.84 | 310 | 2 | 0.00 |
| 5 | 04/14 | 20:00 | 62 | 21 | 21 | 29.83 | 290 | 9 | 0.00 |
| 6 | 04/14 | 19:00 | 66 | 23 | 20 | 29.80 | 330 | 9 | 0.00 |
| 7 | 04/14 | 18:00 | 69 | 23 | 18 | 29.80 | 320 | 7 | 0.00 |
| 8 | 04/14 | 17:00 | 70 | 25 | 19 | 29.83 | 50 | 10 | 0.00 |
| 9 | 04/14 | 16:00 | 70 | 25 | 19 | 29.84 | 350 | 7 | 0.00 |
| 10 | 04/14 | 15:00 | 69 | 23 | 18 | 29.85 | 290 | 7 | 0.00 |
| 11 | 04/14 | 14:00 | 69 | 25 | 20 | 29.88 | 320 | 11 | 0.00 |
| 12 | 04/14 | 13:00 | 66 | 23 | 20 | 29.87 | 280 | 10 | 0.00 |
| 13 | 04/14 | 12:00 | 65 | 24 | 22 | 29.91 | 340 | 11 | 0.00 |
| 14 | 04/14 | 11:00 | 61 | 23 | 24 | 29.94 | 320 | 15 | 0.00 |
| 15 | 04/14 | 10:00 | 50 | 25 | 39 | 29.93 | 330 | 9 | 0.00 |
| 16 | 04/14 | 09:00 | 46 | 25 | 45 | 29.95 | 350 | 4 | 0.00 |
| 17 | 04/14 | 08:00 | 43 | 25 | 49 | 29.93 | 300 | 6 | 0.00 |
| 18 | 04/14 | 07:00 | 41 | 23 | 49 | 29.93 | 240 | 2 | 0.00 |
| 19 | 04/14 | 06:00 | 40 | 23 | 51 | 29.92 | 310 | 6 | 0.00 |
| 20 | 04/14 | 05:00 | 40 | 21 | 48 | 29.91 | 270 | 1 | 0.00 |
| 21 | 04/14 | 04:00 | 41 | 21 | 45 | 29.91 | 280 | 2 | 0.00 |
| 22 | 04/14 | 03:00 | 42 | 19 | 41 | 29.92 | 310 | 4 | 0.00 |
| 23 | 04/14 | 02:00 | 44 | 18 | 36 | 29.92 | 270 | 2 | 0.00 |
| 24 | 04/14 | 01:00 | 44 | 17 | 35 | 29.93 | 300 | 4 | 0.00 |